Time;durP1;ratioP1;P1;durP2;ratioP2;P2;SDS_P1;SDS_P2;PMS_P1;PMS_P2;Temp;Humidity;BMP_temperature;BMP_pressure;BME280_temperature;BME280_humidity;BME280_pressure;Samples;Min_cycle;Max_cycle;Signal;HPM_P1;HPM_P2
2022/11/13 00:00:09;;;;;;;7.25;6.00;;;6.90;99.90;;;;;;5056058;28;20128;-68
2022/11/13 00:02:35;;;;;;;8.13;5.93;;;6.50;99.90;;;;;;5056267;28;20045;-68
2022/11/13 00:05:00;;;;;;;7.28;6.43;;;6.90;99.90;;;;;;5056153;28;20134;-68
2022/11/13 00:07:26;;;;;;;8.45;5.97;;;6.40;99.90;;;;;;5055622;28;20118;-68
2022/11/13 00:09:53;;;;;;;8.25;6.32;;;6.80;99.90;;;;;;5054601;28;20048;-68
2022/11/13 00:12:19;;;;;;;8.88;6.45;;;6.40;99.90;;;;;;5054587;28;20045;-69
2022/11/13 00:14:44;;;;;;;9.38;6.93;;;6.60;99.90;;;;;;5054510;28;20044;-68
2022/11/13 00:17:10;;;;;;;8.15;6.20;;;6.60;99.90;;;;;;5055077;28;20049;-68
2022/11/13 00:19:36;;;;;;;7.95;6.28;;;6.60;99.90;;;;;;5054067;28;20054;-68
2022/11/13 00:22:01;;;;;;;8.32;6.22;;;6.60;99.90;;;;;;5037470;28;20493;-68
2022/11/13 00:24:27;;;;;;;8.95;7.05;;;6.60;99.90;;;;;;5054456;28;20507;-68
2022/11/13 00:26:53;;;;;;;9.40;7.38;;;6.60;99.90;;;;;;5054372;28;20428;-68
2022/11/13 00:29:18;;;;;;;11.00;7.22;;;6.80;99.90;;;;;;5036856;28;20130;-68
2022/11/13 00:31:44;;;;;;;9.07;8.07;;;6.80;99.90;;;;;;5054294;28;20080;-69
2022/11/13 00:34:10;;;;;;;9.73;7.32;;;6.60;99.90;;;;;;5054427;28;20041;-68
2022/11/13 00:36:35;;;;;;;9.02;6.57;;;6.60;99.90;;;;;;5054324;28;20118;-68
2022/11/13 00:39:01;;;;;;;9.50;6.53;;;6.60;99.90;;;;;;5036744;28;20059;-68
2022/11/13 00:41:27;;;;;;;9.30;6.93;;;6.60;99.90;;;;;;5054253;28;20049;-68
2022/11/13 00:43:53;;;;;;;8.85;6.93;;;6.60;99.90;;;;;;5054249;28;20098;-68
2022/11/13 00:46:19;;;;;;;8.70;6.50;;;6.60;99.90;;;;;;5054214;28;20124;-68
2022/11/13 00:48:45;;;;;;;7.22;6.10;;;6.60;99.90;;;;;;5054082;28;20045;-68
2022/11/13 00:51:10;;;;;;;8.30;6.30;;;6.80;99.90;;;;;;5054040;28;20041;-68
2022/11/13 00:53:36;;;;;;;8.65;6.70;;;6.60;99.90;;;;;;5036339;28;20060;-69
2022/11/13 00:56:02;;;;;;;8.50;6.82;;;7.30;99.90;;;;;;5054053;28;20046;-68
2022/11/13 00:58:28;;;;;;;9.85;6.20;;;6.60;99.90;;;;;;5054131;28;20085;-68
2022/11/13 01:00:54;;;;;;;8.25;6.20;;;6.60;99.90;;;;;;5053853;28;20044;-68
2022/11/13 01:03:20;;;;;;;8.38;6.45;;;6.60;99.90;;;;;;5053759;28;20440;-68
2022/11/13 01:05:46;;;;;;;8.55;6.78;;;6.60;99.90;;;;;;5036252;28;20049;-68
2022/11/13 01:08:14;;;;;;;9.20;6.60;;;6.50;99.90;;;;;;5012361;28;1205935;-68
2022/11/13 01:10:46;;;;;;;9.93;6.65;;;6.90;99.90;;;;;;5054668;28;20091;-68
2022/11/13 01:13:12;;;;;;;9.52;7.15;;;6.80;99.90;;;;;;5054957;28;20473;-68
2022/11/13 01:15:40;;;;;;;7.72;5.82;;;6.40;99.90;;;;;;5055363;28;20208;-68
2022/11/13 01:18:06;;;;;;;7.13;6.00;;;6.40;99.90;;;;;;5055067;28;20090;-68
2022/11/13 01:20:31;;;;;;;7.57;6.30;;;6.70;99.90;;;;;;5054541;28;20119;-68
2022/11/13 01:22:58;;;;;;;8.35;5.97;;;6.40;99.90;;;;;;5054577;28;20041;-68
2022/11/13 01:25:24;;;;;;;10.05;7.07;;;6.40;99.90;;;;;;5054443;28;20071;-68
2022/11/13 01:27:49;;;;;;;8.07;6.05;;;6.30;99.90;;;;;;5054662;28;20049;-68
2022/11/13 01:30:15;;;;;;;9.48;6.30;;;6.30;99.90;;;;;;5054587;28;20474;-68
2022/11/13 01:32:41;;;;;;;9.80;6.90;;;6.40;99.90;;;;;;5036247;28;20057;-68
2022/11/13 01:35:07;;;;;;;10.25;6.78;;;6.40;99.90;;;;;;5054852;28;20056;-68
2022/11/13 01:37:33;;;;;;;8.50;6.05;;;6.40;99.90;;;;;;5054180;28;20045;-68
2022/11/13 01:39:58;;;;;;;10.57;7.13;;;6.40;99.90;;;;;;5054421;28;20057;-68
2022/11/13 01:42:24;;;;;;;9.32;7.28;;;6.40;99.90;;;;;;5054175;28;20045;-68
2022/11/13 01:44:54;;;;;;;10.68;7.15;;;6.40;99.90;;;;;;5054079;28;20052;-68
2022/11/13 01:47:21;;;;;;;11.48;7.70;;;6.40;99.90;;;;;;5054099;28;20041;-68
2022/11/13 01:49:50;;;;;;;9.65;6.95;;;6.40;99.90;;;;;;5053988;28;20469;-68
2022/11/13 01:52:23;;;;;;;11.52;7.97;;;6.40;99.90;;;;;;5053975;28;20040;-68
2022/11/13 01:54:55;;;;;;;9.77;7.47;;;6.40;99.90;;;;;;5053943;28;20503;-68
2022/11/13 01:57:22;;;;;;;8.55;6.75;;;6.40;99.90;;;;;;5053866;28;20124;-68
2022/11/13 01:59:53;;;;;;;9.90;7.38;;;6.60;99.90;;;;;;5054321;28;20470;-68
2022/11/13 02:02:19;;;;;;;9.68;7.05;;;6.50;99.90;;;;;;5054282;28;20128;-68
2022/11/13 02:04:45;;;;;;;10.07;7.50;;;6.30;99.90;;;;;;5053726;28;20123;-68
2022/11/13 02:07:13;;;;;;;10.13;7.45;;;6.30;99.90;;;;;;5053664;28;20057;-68
2022/11/13 02:09:45;;;;;;;10.15;7.40;;;6.30;99.90;;;;;;5053713;28;20131;-68
2022/11/13 02:12:13;;;;;;;10.25;7.00;;;6.30;99.90;;;;;;5035411;28;20073;-68
2022/11/13 02:14:46;;;;;;;9.18;6.65;;;6.30;99.90;;;;;;5053606;28;20127;-68
2022/11/13 02:17:17;;;;;;;9.43;7.32;;;6.40;99.90;;;;;;5053208;28;20498;-68
2022/11/13 02:19:47;;;;;;;11.63;6.97;;;6.40;99.90;;;;;;5053505;28;20051;-68
2022/11/13 02:22:23;;;;;;;9.27;6.82;;;6.40;99.90;;;;;;5054324;28;20067;-68
2022/11/13 02:24:49;;;;;;;10.43;7.25;;;6.60;99.90;;;;;;5053495;28;20099;-68
2022/11/13 02:27:28;;;;;;;9.02;6.07;;;6.40;99.90;;;;;;5053475;28;20428;-68
2022/11/13 02:29:53;;;;;;;9.80;6.78;;;6.50;99.90;;;;;;5053411;28;20049;-68
2022/11/13 02:32:19;;;;;;;9.50;6.57;;;6.30;99.90;;;;;;5053150;28;20041;-68
2022/11/13 02:34:45;;;;;;;9.35;6.80;;;6.80;99.90;;;;;;5053899;28;20110;-68
2022/11/13 02:37:10;;;;;;;8.23;6.30;;;6.30;99.90;;;;;;5035681;28;20132;-68
2022/11/13 02:39:36;;;;;;;8.82;6.72;;;6.20;99.90;;;;;;5053236;28;20041;-68
2022/11/13 02:42:02;;;;;;;8.07;6.28;;;6.20;99.90;;;;;;5035789;28;20044;-69
2022/11/13 02:44:28;;;;;;;8.88;6.40;;;6.20;99.90;;;;;;5053171;28;20044;-68
2022/11/13 02:46:53;;;;;;;14.95;12.65;;;6.20;99.90;;;;;;5053132;28;20088;-68
2022/11/13 02:49:19;;;;;;;10.07;7.50;;;6.40;99.90;;;;;;5053184;28;20473;-68
2022/11/13 02:51:45;;;;;;;8.88;7.43;;;6.20;99.90;;;;;;5053098;28;20563;-68
2022/11/13 02:54:10;;;;;;;11.65;10.45;;;6.10;99.90;;;;;;5053617;28;20052;-68
2022/11/13 02:56:36;;;;;;;9.40;7.05;;;6.10;99.90;;;;;;5052805;28;20074;-68
2022/11/13 02:59:02;;;;;;;9.25;6.80;;;6.10;99.90;;;;;;5053016;28;20052;-68
2022/11/13 03:01:27;;;;;;;9.35;6.53;;;6.10;99.90;;;;;;5035372;28;20041;-68
2022/11/13 03:03:53;;;;;;;7.95;5.88;;;6.10;99.90;;;;;;5052912;28;20056;-68
2022/11/13 03:06:19;;;;;;;9.43;7.10;;;6.20;99.90;;;;;;5052703;28;20481;-68
2022/11/13 03:08:44;;;;;;;8.95;6.55;;;6.30;99.90;;;;;;5054042;28;20056;-68
2022/11/13 03:11:10;;;;;;;9.05;7.13;;;6.10;99.90;;;;;;5052875;28;20470;-68
2022/11/13 03:13:36;;;;;;;9.13;6.55;;;6.10;99.90;;;;;;5052941;28;20393;-68
2022/11/13 03:16:14;;;;;;;10.88;7.20;;;6.10;99.90;;;;;;5052893;28;20040;-68
2022/11/13 03:18:40;;;;;;;9.10;6.57;;;6.10;99.90;;;;;;5053184;28;20048;-68
2022/11/13 03:21:11;;;;;;;10.43;6.78;;;6.10;99.90;;;;;;5052872;28;20123;-68
2022/11/13 03:23:38;;;;;;;8.38;6.50;;;6.10;99.90;;;;;;5018465;28;20128;-68
2022/11/13 03:26:09;;;;;;;8.10;6.18;;;6.30;99.90;;;;;;5052732;28;20053;-68
2022/11/13 03:28:35;;;;;;;9.70;6.07;;;6.10;99.90;;;;;;5035202;28;20052;-68
2022/11/13 03:31:02;;;;;;;9.52;6.63;;;6.00;99.90;;;;;;5052667;28;20127;-68
2022/11/13 03:33:28;;;;;;;8.85;6.13;;;6.10;99.90;;;;;;5052567;28;20151;-68
2022/11/13 03:35:53;;;;;;;7.38;5.78;;;6.00;99.90;;;;;;5052738;28;20041;-68
2022/11/13 03:38:19;;;;;;;8.68;6.35;;;5.90;99.90;;;;;;5052961;28;20067;-68
2022/11/13 03:40:45;;;;;;;7.95;5.88;;;5.90;99.90;;;;;;5053178;28;20045;-68
2022/11/13 03:43:11;;;;;;;8.02;6.22;;;5.90;99.90;;;;;;5052496;28;20059;-68
2022/11/13 03:45:36;;;;;;;7.78;5.80;;;5.90;99.90;;;;;;5052608;28;20045;-68
2022/11/13 03:48:02;;;;;;;9.02;6.30;;;5.90;99.90;;;;;;5052541;28;20100;-68
2022/11/13 03:50:28;;;;;;;7.97;6.47;;;5.80;99.90;;;;;;5034858;28;20374;-68
2022/11/13 03:52:53;;;;;;;9.18;6.45;;;5.80;99.90;;;;;;5052553;28;20041;-68
2022/11/13 03:55:19;;;;;;;9.30;6.38;;;5.70;99.90;;;;;;5055126;28;20053;-68
2022/11/13 03:57:46;;;;;;;8.70;6.65;;;5.70;99.90;;;;;;5038685;28;20051;-68
2022/11/13 04:00:13;;;;;;;8.23;6.13;;;5.70;99.90;;;;;;5038846;28;20090;-68
2022/11/13 04:02:39;;;;;;;9.25;6.13;;;5.70;99.90;;;;;;5055967;28;20049;-68
2022/11/13 04:05:06;;;;;;;8.75;6.95;;;5.70;99.90;;;;;;5056550;28;20041;-68
2022/11/13 04:07:32;;;;;;;9.68;6.57;;;5.70;99.90;;;;;;5055922;28;20057;-68
2022/11/13 04:09:58;;;;;;;8.55;6.93;;;5.70;99.90;;;;;;5055958;28;20062;-68
2022/11/13 04:12:23;;;;;;;7.10;5.82;;;5.70;99.90;;;;;;5056434;28;20052;-68
2022/11/13 04:14:49;;;;;;;10.40;6.72;;;6.10;99.90;;;;;;5056666;28;20045;-68
2022/11/13 04:17:15;;;;;;;8.25;6.10;;;5.70;99.90;;;;;;5055769;28;20398;-69
2022/11/13 04:19:40;;;;;;;8.20;6.05;;;5.70;99.90;;;;;;5038494;28;20122;-68
2022/11/13 04:22:06;;;;;;;8.38;6.20;;;6.20;99.90;;;;;;5055762;28;20041;-68
2022/11/13 04:24:32;;;;;;;8.00;6.38;;;5.90;99.90;;;;;;5055654;28;20049;-68
2022/11/13 04:26:58;;;;;;;9.13;6.35;;;6.20;99.90;;;;;;5055516;28;20124;-68
2022/11/13 04:29:23;;;;;;;6.53;5.55;;;5.80;99.90;;;;;;5055984;28;20037;-68
2022/11/13 04:31:49;;;;;;;7.00;5.72;;;5.80;99.90;;;;;;5055157;28;20037;-69
2022/11/13 04:34:15;;;;;;;5.72;4.72;;;6.00;99.90;;;;;;5054708;28;20052;-68
2022/11/13 04:36:40;;;;;;;6.80;5.50;;;5.90;99.90;;;;;;5056124;28;20037;-69
2022/11/13 04:39:07;;;;;;;6.30;5.07;;;5.70;99.90;;;;;;5037777;28;20473;-68
2022/11/13 04:44:17;;;;;;;5.65;4.68;;;5.60;99.90;;;;;;5055711;28;20115;-68
2022/11/13 04:46:42;;;;;;;5.90;4.45;;;5.60;99.90;;;;;;5055299;28;20037;-68
2022/11/13 04:49:08;;;;;;;4.88;4.30;;;5.50;99.90;;;;;;5055279;28;20056;-68
2022/11/13 04:51:34;;;;;;;7.50;5.03;;;5.40;99.90;;;;;;5055643;28;20124;-68
2022/11/13 04:53:59;;;;;;;6.40;4.72;;;5.40;99.90;;;;;;5055738;28;20044;-68
2022/11/13 04:56:25;;;;;;;6.18;5.28;;;5.90;99.90;;;;;;5055114;28;20378;-68
2022/11/13 04:58:51;;;;;;;5.68;4.85;;;5.50;99.90;;;;;;5055159;28;20092;-69
2022/11/13 05:01:16;;;;;;;6.65;5.18;;;5.60;99.90;;;;;;5055071;28;20037;-68
2022/11/13 05:03:42;;;;;;;7.22;5.68;;;5.40;99.90;;;;;;5038121;28;20381;-69
2022/11/13 05:06:09;;;;;;;6.28;5.22;;;6.40;99.90;;;;;;5053522;28;20408;-68
2022/11/13 05:08:34;;;;;;;9.25;5.78;;;5.40;99.90;;;;;;5055290;28;20445;-69
2022/11/13 05:11:01;;;;;;;6.50;5.20;;;5.30;99.90;;;;;;5055322;28;20128;-68
2022/11/13 05:13:30;;;;;;;7.75;6.15;;;5.60;99.90;;;;;;5054795;28;20041;-68
2022/11/13 05:16:06;;;;;;;6.60;5.50;;;5.70;99.90;;;;;;5038002;28;20053;-68
2022/11/13 05:18:32;;;;;;;7.47;6.00;;;5.20;99.90;;;;;;5054724;28;20045;-68
2022/11/13 05:20:58;;;;;;;6.55;5.35;;;5.10;99.90;;;;;;5054459;28;20481;-68
2022/11/13 05:23:23;;;;;;;7.63;5.57;;;5.10;99.90;;;;;;5036904;28;20049;-68
2022/11/13 05:25:50;;;;;;;7.18;4.93;;;5.20;99.90;;;;;;5054655;28;20048;-68
2022/11/13 05:28:16;;;;;;;6.68;5.03;;;5.00;99.90;;;;;;5054565;28;20041;-68
2022/11/13 05:30:42;;;;;;;6.60;5.18;;;5.00;99.90;;;;;;5054405;28;20041;-68
2022/11/13 05:33:07;;;;;;;7.75;5.32;;;5.20;99.90;;;;;;5054351;28;20111;-68
2022/11/13 05:35:33;;;;;;;6.95;4.90;;;5.50;99.90;;;;;;5054417;28;20045;-68
2022/11/13 05:38:00;;;;;;;6.60;5.18;;;5.10;99.90;;;;;;5054658;28;20095;-68
2022/11/13 05:40:27;;;;;;;7.47;5.55;;;5.20;99.90;;;;;;5054346;28;20052;-68
2022/11/13 05:42:54;;;;;;;7.93;5.63;;;5.20;99.90;;;;;;5054171;28;20048;-68
2022/11/13 05:45:20;;;;;;;7.60;5.10;;;5.20;99.90;;;;;;5054204;28;20049;-68
2022/11/13 05:47:45;;;;;;;7.72;5.57;;;5.20;99.90;;;;;;5055150;28;20048;-68
2022/11/13 05:50:11;;;;;;;7.03;5.75;;;5.20;99.90;;;;;;5036845;28;20528;-68
2022/11/13 05:52:36;;;;;;;7.30;5.63;;;5.60;99.90;;;;;;5054103;28;20053;-68
2022/11/13 05:55:03;;;;;;;8.90;5.82;;;5.20;99.90;;;;;;5053990;28;20044;-69
2022/11/13 05:57:29;;;;;;;7.35;5.90;;;5.20;99.90;;;;;;5053950;28;20056;-68
2022/11/13 05:59:54;;;;;;;6.63;5.28;;;5.20;99.90;;;;;;5054219;28;20044;-68
2022/11/13 06:02:20;;;;;;;6.95;5.00;;;5.20;99.90;;;;;;5054468;28;20037;-68
2022/11/13 06:04:47;;;;;;;7.43;5.72;;;5.40;99.90;;;;;;5054187;28;20099;-68
2022/11/13 06:07:13;;;;;;;7.07;5.32;;;5.20;99.90;;;;;;5053666;28;20057;-68
2022/11/13 06:09:39;;;;;;;9.88;6.05;;;5.10;99.90;;;;;;5036016;28;20059;-68
2022/11/13 06:12:05;;;;;;;6.57;5.22;;;5.00;99.90;;;;;;5053628;28;20049;-68
2022/11/13 06:14:30;;;;;;;7.15;5.28;;;5.00;99.90;;;;;;5053731;28;20123;-68
2022/11/13 06:16:56;;;;;;;6.63;4.90;;;5.00;99.90;;;;;;5053631;28;20480;-68
2022/11/13 06:19:22;;;;;;;7.22;5.03;;;4.80;99.90;;;;;;5053566;28;20041;-68
2022/11/13 06:21:47;;;;;;;5.90;5.00;;;4.70;99.90;;;;;;5054296;28;20049;-68
2022/11/13 06:24:13;;;;;;;6.82;5.13;;;4.90;99.90;;;;;;5054284;28;20041;-68
2022/11/13 06:26:39;;;;;;;7.45;5.20;;;4.50;99.90;;;;;;5036661;28;20418;-68
2022/11/13 06:29:06;;;;;;;6.43;4.68;;;4.50;99.90;;;;;;5053435;28;20123;-68
2022/11/13 06:31:34;;;;;;;7.47;5.07;;;4.60;99.90;;;;;;5053574;28;20041;-68
2022/11/13 06:34:01;;;;;;;6.10;5.18;;;4.40;99.90;;;;;;5052770;28;20418;-68
2022/11/13 06:36:30;;;;;;;6.93;4.88;;;4.50;99.90;;;;;;5053261;28;20053;-68
2022/11/13 06:38:56;;;;;;;7.15;5.55;;;4.70;99.90;;;;;;5053123;28;20045;-68
2022/11/13 06:41:24;;;;;;;9.52;7.72;;;4.50;99.90;;;;;;5035309;28;20388;-68
2022/11/13 06:43:50;;;;;;;7.18;6.00;;;4.90;99.90;;;;;;5053894;28;20408;-68
2022/11/13 06:46:21;;;;;;;8.60;6.18;;;4.50;99.90;;;;;;5053652;28;20047;-68
2022/11/13 06:48:47;;;;;;;7.78;6.13;;;4.50;99.90;;;;;;5035241;28;20056;-68
2022/11/13 06:51:22;;;;;;;10.80;8.43;;;5.00;99.90;;;;;;5053095;28;20520;-68
2022/11/13 06:53:48;;;;;;;8.13;6.25;;;4.80;99.90;;;;;;5053592;28;20135;-68
2022/11/13 06:56:14;;;;;;;7.78;5.78;;;4.60;99.90;;;;;;5053419;28;20437;-68
2022/11/13 06:58:40;;;;;;;6.28;5.50;;;4.70;99.90;;;;;;5053082;28;20048;-68
2022/11/13 07:01:08;;;;;;;9.48;6.20;;;4.70;99.90;;;;;;5035409;28;20052;-68
2022/11/13 07:03:34;;;;;;;8.23;6.05;;;4.70;99.90;;;;;;5052798;28;20123;-68
2022/11/13 07:06:02;;;;;;;6.68;5.90;;;4.80;99.90;;;;;;5052968;28;20226;-68
2022/11/13 07:08:28;;;;;;;12.35;6.25;;;5.10;99.90;;;;;;5053564;28;20060;-68
2022/11/13 07:10:55;;;;;;;7.78;5.80;;;5.00;99.90;;;;;;5052792;28;20147;-68
2022/11/13 07:13:22;;;;;;;7.97;5.78;;;4.90;99.90;;;;;;5035117;28;20127;-68
2022/11/13 07:15:47;;;;;;;7.25;5.63;;;5.00;99.90;;;;;;5052886;28;20099;-68
2022/11/13 07:18:13;;;;;;;7.68;5.30;;;5.10;99.90;;;;;;5052895;28;20080;-68
2022/11/13 07:20:39;;;;;;;7.90;5.65;;;5.30;99.90;;;;;;5052831;28;20091;-68
2022/11/13 07:23:04;;;;;;;7.90;5.57;;;5.00;99.90;;;;;;5053164;28;20083;-68
2022/11/13 07:25:30;;;;;;;7.70;5.72;;;5.00;99.90;;;;;;5052829;28;20053;-68
2022/11/13 07:27:56;;;;;;;7.93;5.43;;;5.40;99.90;;;;;;5053553;28;20037;-68
2022/11/13 07:30:22;;;;;;;7.07;5.40;;;5.00;99.90;;;;;;5055493;28;20465;-68
2022/11/13 07:32:48;;;;;;;6.40;5.10;;;4.90;99.90;;;;;;5038779;28;20051;-69
2022/11/13 07:35:15;;;;;;;8.27;5.68;;;5.00;99.90;;;;;;5056675;28;20487;-68
2022/11/13 07:37:41;;;;;;;6.57;5.00;;;4.90;99.90;;;;;;5056467;28;20057;-68
2022/11/13 07:40:08;;;;;;;6.40;4.70;;;4.90;99.90;;;;;;5057085;28;20393;-68
2022/11/13 07:42:34;;;;;;;6.28;4.95;;;4.90;99.90;;;;;;5056462;28;20135;-68
2022/11/13 07:45:00;;;;;;;6.45;4.93;;;5.50;99.90;;;;;;5056460;28;20128;-68
2022/11/13 07:47:25;;;;;;;8.50;5.40;;;4.70;99.90;;;;;;5056098;28;20049;-68
2022/11/13 07:49:51;;;;;;;6.95;5.15;;;4.90;99.90;;;;;;5056513;28;20060;-68
2022/11/13 07:52:17;;;;;;;7.10;5.35;;;5.50;99.90;;;;;;5038417;28;20136;-68
2022/11/13 07:54:43;;;;;;;6.47;4.80;;;4.80;99.90;;;;;;5056224;28;20444;-68
2022/11/13 07:57:09;;;;;;;7.25;5.35;;;6.20;99.90;;;;;;5038720;28;20064;-65
2022/11/13 07:59:34;;;;;;;6.57;4.75;;;4.80;99.90;;;;;;5056199;28;20048;-65
2022/11/13 08:02:00;;;;;;;7.13;4.90;;;4.80;99.90;;;;;;5056026;28;20049;-64
2022/11/13 08:04:27;;;;;;;7.88;5.18;;;4.80;99.90;;;;;;5055988;28;20335;-64
2022/11/13 08:06:52;;;;;;;7.50;5.72;;;4.80;99.90;;;;;;5038056;28;20102;-64
2022/11/13 08:09:18;;;;;;;6.07;5.10;;;4.90;99.90;;;;;;5034592;28;20065;-64
2022/11/13 08:11:44;;;;;;;7.03;5.32;;;4.80;99.90;;;;;;5035658;28;20054;-65
2022/11/13 08:14:10;;;;;;;8.18;5.13;;;4.90;99.90;;;;;;5035664;28;20049;-64
2022/11/13 08:16:36;;;;;;;8.38;5.35;;;4.90;99.90;;;;;;5035810;28;20041;-65
2022/11/13 08:19:02;;;;;;;7.07;5.55;;;4.90;99.90;;;;;;5035803;28;20038;-65
2022/11/13 08:21:28;;;;;;;7.63;5.65;;;5.00;99.90;;;;;;5035866;28;20041;-64
2022/11/13 08:23:53;;;;;;;7.18;5.45;;;5.30;99.90;;;;;;5035847;28;20114;-64
2022/11/13 08:26:19;;;;;;;8.13;5.78;;;5.50;99.90;;;;;;5035783;28;20103;-65
2022/11/13 08:28:45;;;;;;;6.95;5.40;;;5.20;99.90;;;;;;5035753;28;20060;-65
2022/11/13 08:31:12;;;;;;;7.28;5.90;;;6.40;99.90;;;;;;5036161;28;20046;-65
2022/11/13 08:33:40;;;;;;;7.57;5.95;;;5.80;99.90;;;;;;5035533;28;20053;-65
2022/11/13 08:36:06;;;;;;;6.15;5.43;;;5.70;99.90;;;;;;5035875;28;20084;-65
2022/11/13 08:38:31;;;;;;;6.75;5.55;;;5.60;99.90;;;;;;5034276;28;20150;-65
2022/11/13 08:40:58;;;;;;;7.80;5.93;;;6.00;99.90;;;;;;5035152;28;20143;-65
2022/11/13 08:43:25;;;;;;;7.22;5.82;;;5.80;99.90;;;;;;5035395;28;20076;-65
2022/11/13 08:45:50;;;;;;;8.00;6.60;;;5.90;99.90;;;;;;5035223;28;20049;-66
2022/11/13 08:48:17;;;;;;;7.47;6.22;;;6.80;99.90;;;;;;5032790;28;20056;-66
2022/11/13 08:50:43;;;;;;;7.65;6.07;;;6.10;99.90;;;;;;5034924;28;20084;-65
2022/11/13 08:53:09;;;;;;;8.32;6.13;;;6.20;99.90;;;;;;5035079;28;20053;-64
2022/11/13 08:55:35;;;;;;;9.52;6.72;;;6.30;99.90;;;;;;5034968;28;20046;-65
2022/11/13 08:58:01;;;;;;;8.40;5.90;;;6.40;99.90;;;;;;5035281;28;20076;-64
2022/11/13 09:00:29;;;;;;;8.18;6.60;;;7.10;99.90;;;;;;5035778;28;20049;-65
2022/11/13 09:02:56;;;;;;;9.70;6.65;;;6.60;99.90;;;;;;5035431;28;20053;-65
2022/11/13 09:05:22;;;;;;;7.60;6.13;;;6.70;99.90;;;;;;5035005;28;20437;-65
2022/11/13 09:07:48;;;;;;;7.72;5.97;;;7.60;99.90;;;;;;5041802;28;20052;-65
2022/11/13 09:10:15;;;;;;;8.15;6.10;;;8.10;99.90;;;;;;5037329;28;20045;-65
2022/11/13 09:12:40;;;;;;;9.02;6.50;;;7.20;99.90;;;;;;5054608;28;20102;-65
2022/11/13 09:15:06;;;;;;;8.57;6.47;;;7.30;99.90;;;;;;5037360;28;20049;-65
2022/11/13 09:17:32;;;;;;;8.82;6.00;;;7.40;99.90;;;;;;5054421;28;20044;-65
2022/11/13 09:19:58;;;;;;;8.98;6.35;;;7.50;99.90;;;;;;5054502;28;20359;-65
2022/11/13 09:22:23;;;;;;;9.70;6.32;;;7.60;99.90;;;;;;5054607;28;20040;-65
2022/11/13 09:24:49;;;;;;;7.25;5.90;;;7.70;99.90;;;;;;5054453;28;20044;-65
2022/11/13 09:27:15;;;;;;;8.32;6.63;;;7.70;99.90;;;;;;5054442;28;20108;-65
2022/11/13 09:29:41;;;;;;;8.05;6.47;;;7.80;99.90;;;;;;5054318;28;20092;-65
2022/11/13 09:32:07;;;;;;;9.35;6.72;;;7.90;99.90;;;;;;5054274;28;20113;-65
2022/11/13 09:34:33;;;;;;;8.07;6.18;;;8.00;99.90;;;;;;5054215;28;20041;-65
2022/11/13 09:36:59;;;;;;;8.38;6.38;;;8.10;99.90;;;;;;5054523;28;20053;-65
2022/11/13 09:39:25;;;;;;;7.20;5.90;;;8.20;99.90;;;;;;5054042;28;20045;-65
2022/11/13 09:42:04;;;;;;;6.57;5.75;;;8.40;99.90;;;;;;5054090;28;20041;-66
2022/11/13 09:44:33;;;;;;;7.72;6.25;;;8.50;99.90;;;;;;5054064;28;20052;-65
2022/11/13 09:47:12;;;;;;;7.90;5.80;;;8.90;99.90;;;;;;5053967;28;20057;-68
2022/11/13 09:49:44;;;;;;;7.55;6.05;;;9.00;99.90;;;;;;5054820;28;20095;-69
2022/11/13 09:52:26;;;;;;;8.25;6.07;;;9.40;99.90;;;;;;5053296;28;20106;-69
2022/11/13 09:54:52;;;;;;;6.80;5.60;;;9.50;99.90;;;;;;5054754;28;20098;-68
2022/11/13 09:57:36;;;;;;;7.30;5.80;;;9.50;99.90;;;;;;5053870;28;20049;-70
2022/11/13 10:00:10;;;;;;;6.43;5.38;;;9.40;99.90;;;;;;5036945;28;20052;-69
2022/11/13 10:03:03;;;;;;;6.95;5.75;;;9.50;99.90;;;;;;5053782;28;20041;-69
2022/11/13 10:05:53;;;;;;;6.75;6.05;;;9.90;99.90;;;;;;5054276;28;20049;-70
2022/11/13 10:08:26;;;;;;;5.72;5.10;;;10.80;99.90;;;;;;5053740;28;20063;-70
2022/11/13 10:11:16;;;;;;;6.35;5.32;;;11.50;99.90;;;;;;5053555;28;20132;-69
2022/11/13 10:13:55;;;;;;;6.38;5.15;;;12.00;99.90;;;;;;5036700;28;20048;-70
2022/11/13 10:16:37;;;;;;;6.22;5.63;;;12.50;99.90;;;;;;5053263;28;20045;-71
2022/11/13 10:19:25;;;;;;;6.05;5.30;;;13.30;99.90;;;;;;5053359;28;20048;-70
2022/11/13 10:22:12;;;;;;;6.55;5.50;;;13.90;99.90;;;;;;5054025;28;20051;-71
2022/11/13 10:24:44;;;;;;;5.25;4.75;;;14.40;99.90;;;;;;5053724;28;20132;-72
2022/11/13 10:27:11;;;;;;;5.80;5.20;;;15.00;99.90;;;;;;5035865;28;20048;-70
2022/11/13 10:29:38;;;;;;;5.50;5.00;;;15.50;99.90;;;;;;5054110;28;20049;-70
2022/11/13 10:32:28;;;;;;;5.75;5.15;;;15.80;99.90;;;;;;5035336;28;20044;-69
2022/11/13 10:35:00;;;;;;;5.28;4.70;;;15.80;99.90;;;;;;5053828;28;20060;-69
2022/11/13 10:38:01;;;;;;;6.13;5.07;;;15.90;99.90;;;;;;5053787;28;20053;-70
2022/11/13 10:40:33;;;;;;;5.88;4.82;;;16.20;99.90;;;;;;5053406;28;20071;-65
2022/11/13 10:43:14;;;;;;;6.00;5.05;;;16.30;99.90;;;;;;5053194;28;20051;-64
2022/11/13 10:45:42;;;;;;;5.70;5.15;;;15.90;99.90;;;;;;5053203;28;20049;-64
2022/11/13 10:48:23;;;;;;;6.63;5.13;;;15.40;99.90;;;;;;5053540;28;20433;-64
2022/11/13 10:50:54;;;;;;;6.65;5.05;;;15.30;99.90;;;;;;5052993;28;20044;-64
2022/11/13 10:53:20;;;;;;;5.70;4.50;;;15.20;99.90;;;;;;5053043;28;20049;-64
2022/11/13 10:55:50;;;;;;;5.95;4.95;;;15.20;99.90;;;;;;5035263;28;20528;-64
2022/11/13 10:58:18;;;;;;;5.78;4.75;;;15.30;99.90;;;;;;5035188;28;20045;-64
2022/11/13 11:00:47;;;;;;;5.70;4.80;;;15.30;99.90;;;;;;5052981;28;20049;-64
2022/11/13 11:03:24;;;;;;;6.00;4.78;;;14.90;99.90;;;;;;5053836;28;20481;-64
2022/11/13 11:05:58;;;;;;;5.60;4.82;;;14.40;99.90;;;;;;5057232;28;20037;-64
2022/11/13 11:08:34;;;;;;;6.03;5.40;;;13.90;99.90;;;;;;5056760;28;20053;-64
2022/11/13 11:14:10;;;;;;;7.60;4.93;;;13.20;99.90;;;;;;5057525;28;20056;-64
2022/11/13 11:16:36;;;;;;;5.38;4.38;;;12.80;99.90;;;;;;5039565;28;20053;-64
2022/11/13 11:19:07;;;;;;;6.93;5.10;;;12.50;99.90;;;;;;5056934;28;20067;-64
2022/11/13 11:21:36;;;;;;;6.15;4.97;;;12.40;99.90;;;;;;5057188;28;20044;-64
2022/11/13 11:24:17;;;;;;;6.60;5.20;;;12.30;99.90;;;;;;5056786;28;20045;-64
2022/11/13 11:27:14;;;;;;;6.10;5.00;;;12.20;99.90;;;;;;5057089;28;20454;-64
2022/11/13 11:30:03;;;;;;;7.47;5.03;;;12.00;99.90;;;;;;5038897;28;20504;-64
2022/11/13 11:32:50;;;;;;;5.95;4.90;;;12.00;99.90;;;;;;5057140;28;20080;-64
2022/11/13 11:35:37;;;;;;;6.28;4.60;;;12.00;99.90;;;;;;5056683;28;20095;-64
2022/11/13 11:38:31;;;;;;;5.60;4.35;;;11.90;99.90;;;;;;5057302;28;20088;-64
2022/11/13 11:41:12;;;;;;;6.70;4.72;;;11.90;99.90;;;;;;5039720;28;20052;-64
2022/11/13 11:43:57;;;;;;;5.97;4.32;;;11.90;99.90;;;;;;5056358;28;20088;-64
2022/11/13 11:46:23;;;;;;;5.18;4.30;;;11.90;99.90;;;;;;5038553;28;20041;-64
2022/11/13 11:48:49;;;;;;;5.70;4.32;;;11.90;99.90;;;;;;5056304;28;20052;-65
2022/11/13 11:51:25;;;;;;;4.53;4.13;;;11.90;99.90;;;;;;5055850;28;20494;-64
2022/11/13 11:54:24;;;;;;;6.07;4.25;;;11.90;99.90;;;;;;5038753;28;20041;-64
2022/11/13 11:56:56;;;;;;;5.00;4.00;;;11.90;99.90;;;;;;5056760;28;20045;-64
2022/11/13 11:59:30;;;;;;;5.50;4.38;;;12.00;99.90;;;;;;5056099;28;20052;-65
2022/11/13 12:02:19;;;;;;;5.10;3.95;;;12.00;99.90;;;;;;5056059;28;20037;-64
2022/11/13 12:05:10;;;;;;;5.10;3.70;;;12.00;99.90;;;;;;5056518;28;20424;-64
2022/11/13 12:08:06;;;;;;;5.30;3.80;;;12.00;99.90;;;;;;5056698;28;20416;-64
2022/11/13 12:10:51;;;;;;;6.00;4.47;;;12.00;99.90;;;;;;5055940;28;20099;-64
2022/11/13 12:13:45;;;;;;;4.55;3.95;;;12.00;99.90;;;;;;5056729;28;20053;-64
2022/11/13 12:16:24;;;;;;;4.75;3.80;;;12.10;99.90;;;;;;5020467;28;20077;-64
2022/11/13 12:19:27;;;;;;;5.10;4.10;;;12.10;99.90;;;;;;5056046;28;20397;-64
2022/11/13 12:22:12;;;;;;;6.07;4.18;;;12.10;99.90;;;;;;5055638;28;20041;-64
2022/11/13 12:24:52;;;;;;;5.47;4.40;;;12.20;99.90;;;;;;5055677;28;20051;-64
2022/11/13 12:27:50;;;;;;;5.45;3.80;;;12.20;99.90;;;;;;5055375;28;20136;-64
2022/11/13 12:30:17;;;;;;;5.95;4.25;;;12.20;99.90;;;;;;5039350;28;20053;-65
2022/11/13 12:33:05;;;;;;;5.07;3.50;;;12.20;99.90;;;;;;5055673;28;20041;-64
2022/11/13 12:35:31;;;;;;;5.20;3.97;;;12.30;99.90;;;;;;5056080;28;20109;-64
2022/11/13 12:38:21;;;;;;;5.25;3.75;;;12.40;99.90;;;;;;5055402;28;20370;-64
2022/11/13 12:40:59;;;;;;;5.35;3.80;;;12.50;99.90;;;;;;5055963;28;20072;-64
2022/11/13 12:43:44;;;;;;;5.57;4.93;;;12.50;99.90;;;;;;5055916;28;20049;-64
2022/11/13 12:46:11;;;;;;;5.07;4.18;;;12.50;99.90;;;;;;5056036;28;20045;-64
2022/11/13 12:48:42;;;;;;;5.07;3.55;;;12.50;99.90;;;;;;5054851;28;20548;-64
2022/11/13 12:51:11;;;;;;;4.05;3.05;;;12.50;99.90;;;;;;5055060;28;20045;-64
2022/11/13 12:53:51;;;;;;;4.40;3.30;;;12.50;99.90;;;;;;5055164;28;20080;-64
2022/11/13 12:56:23;;;;;;;4.57;3.40;;;12.50;99.90;;;;;;5055429;28;20056;-64
2022/11/13 12:59:17;;;;;;;4.55;3.65;;;12.50;99.90;;;;;;5055539;28;20056;-65
2022/11/13 13:01:55;;;;;;;5.07;3.30;;;12.50;99.90;;;;;;5020445;28;20247;-64
2022/11/13 13:04:42;;;;;;;4.32;3.25;;;12.50;99.90;;;;;;5055605;28;20045;-64
2022/11/13 13:07:11;;;;;;;;;;;12.50;99.90;;;;;;5055147;28;20458;-64
2022/11/13 13:09:42;;;;;;;5.88;3.22;;;12.60;99.90;;;;;;5054731;28;19976;-64
2022/11/13 13:12:23;;;;;;;5.22;3.40;;;12.60;99.90;;;;;;5055446;28;20055;-70